createdAt,value
2023-03-06T00:00:56.350Z,95027.00
2023-03-06T00:01:57.415Z,95027.00
2023-03-06T00:02:56.327Z,95027.00
2023-03-06T00:03:58.021Z,95027.00
2023-03-06T00:04:57.302Z,95025.00
2023-03-06T00:05:56.333Z,95029.00
2023-03-06T00:06:57.299Z,95025.00
2023-03-06T00:07:57.322Z,95025.00
2023-03-06T00:08:57.290Z,95023.00
2023-03-06T00:09:57.272Z,95023.00
2023-03-06T00:10:57.290Z,95023.00
2023-03-06T00:11:57.250Z,95021.00
2023-03-06T00:12:57.247Z,95019.00
2023-03-06T00:13:57.241Z,95019.00
2023-03-06T00:14:57.225Z,95021.00
2023-03-06T00:15:57.259Z,95021.00
2023-03-06T00:16:57.215Z,95017.00
2023-03-06T00:17:57.209Z,95017.00
2023-03-06T00:18:56.197Z,95015.00
2023-03-06T00:19:56.188Z,95015.00
2023-03-06T00:20:57.179Z,95015.00
2023-03-06T00:21:57.176Z,95012.00
2023-03-06T00:22:56.166Z,95012.00
2023-03-06T00:23:57.201Z,95010.00
2023-03-06T00:24:57.163Z,95010.00
2023-03-06T00:25:57.164Z,95010.00
2023-03-06T00:26:56.144Z,95010.00
2023-03-06T00:27:56.150Z,95008.00
2023-03-06T00:28:56.138Z,95010.00
2023-03-06T00:29:56.109Z,95010.00
2023-03-06T00:30:57.111Z,95010.00
2023-03-06T00:31:57.124Z,95008.00
2023-03-06T00:32:57.098Z,95012.00
2023-03-06T00:33:56.116Z,95010.00
2023-03-06T00:34:56.195Z,95008.00
2023-03-06T00:35:57.325Z,95006.00
2023-03-06T00:36:57.268Z,95004.00
2023-03-06T00:37:57.328Z,95008.00
2023-03-06T00:38:57.385Z,95002.00
2023-03-06T00:39:57.477Z,95002.00
2023-03-06T00:40:57.497Z,95000.00
2023-03-06T00:41:57.535Z,95002.00
2023-03-06T00:42:57.595Z,95000.00
2023-03-06T00:43:56.646Z,94996.00
2023-03-06T00:44:57.685Z,94996.00
2023-03-06T00:45:57.853Z,94992.00
2023-03-06T00:46:56.781Z,94992.00
2023-03-06T00:47:57.830Z,94990.00
2023-03-06T00:48:57.868Z,94990.00
2023-03-06T00:49:56.902Z,94986.00
2023-03-06T00:50:57.942Z,94988.00
2023-03-06T00:51:57.980Z,94984.00
2023-03-06T00:52:57.028Z,94984.00
2023-03-06T00:53:58.062Z,94986.00
2023-03-06T00:54:57.076Z,94982.00
2023-03-06T00:55:57.137Z,94982.00
2023-03-06T00:56:57.135Z,94980.00
2023-03-06T00:57:57.175Z,94982.00
2023-03-06T00:58:58.204Z,94982.00
2023-03-06T00:59:58.234Z,94980.00
2023-03-06T01:00:58.289Z,94980.00
2023-03-06T01:01:57.286Z,94976.00
2023-03-06T01:02:58.313Z,94976.00
2023-03-06T01:03:58.344Z,94974.00
2023-03-06T01:04:58.371Z,94972.00
2023-03-06T01:05:58.395Z,94970.00
2023-03-06T01:06:58.428Z,94966.00
2023-03-06T01:07:57.453Z,94968.00
2023-03-06T01:08:57.471Z,94965.00
2023-03-06T01:09:58.500Z,94961.00
2023-03-06T01:10:58.512Z,94961.00
2023-03-06T01:11:58.569Z,94959.00
2023-03-06T01:12:57.558Z,94959.00
2023-03-06T01:13:58.603Z,94957.00
2023-03-06T01:14:57.611Z,94955.00
2023-03-06T01:15:58.621Z,94953.00
2023-03-06T01:16:57.652Z,94953.00
2023-03-06T01:17:58.662Z,94949.00
2023-03-06T01:18:57.692Z,94947.00
2023-03-06T01:19:58.694Z,94947.00
2023-03-06T01:20:58.724Z,94945.00
2023-03-06T01:21:58.745Z,94941.00
2023-03-06T01:22:58.745Z,94943.00
2023-03-06T01:23:58.765Z,94939.00
2023-03-06T01:24:58.770Z,94941.00
2023-03-06T01:25:58.774Z,94939.00
2023-03-06T01:26:57.801Z,94937.00
2023-03-06T01:27:58.856Z,94937.00
2023-03-06T01:28:58.811Z,94937.00
2023-03-06T01:29:58.837Z,94933.00
2023-03-06T01:30:58.846Z,94929.00
2023-03-06T01:31:58.924Z,94929.00
2023-03-06T01:32:58.862Z,94927.00
2023-03-06T01:33:58.907Z,94929.00
2023-03-06T01:34:58.907Z,94931.00
2023-03-06T01:35:58.881Z,94927.00
2023-03-06T01:36:58.904Z,94925.00
2023-03-06T01:37:57.910Z,94925.00
2023-03-06T01:38:58.927Z,94923.00
2023-03-06T01:39:58.952Z,94921.00
2023-03-06T01:40:58.939Z,94921.00
2023-03-06T01:41:58.944Z,94918.00
2023-03-06T01:42:58.942Z,94918.00
2023-03-06T01:43:59.002Z,94916.00
2023-03-06T01:44:59.007Z,94914.00
2023-03-06T01:45:59.017Z,94914.00
2023-03-06T01:46:58.951Z,94914.00
2023-03-06T01:47:58.953Z,94912.00
2023-03-06T01:48:58.974Z,94906.00
2023-03-06T01:49:58.972Z,94906.00
2023-03-06T01:50:58.962Z,94902.00
2023-03-06T01:51:58.975Z,94900.00
2023-03-06T01:52:58.997Z,94898.00
2023-03-06T01:53:58.990Z,94898.00
2023-03-06T01:54:57.977Z,94896.00
2023-03-06T01:55:58.971Z,94896.00
2023-03-06T01:56:58.964Z,94886.00
2023-03-06T01:57:58.976Z,94884.00
2023-03-06T01:58:58.956Z,94882.00
2023-03-06T01:59:58.966Z,94882.00
2023-03-06T02:00:58.977Z,94880.00
2023-03-06T02:01:57.972Z,94878.00
2023-03-06T02:02:59.011Z,94876.00
2023-03-06T02:03:59.016Z,94876.00
2023-03-06T02:04:58.964Z,94876.00
2023-03-06T02:05:57.961Z,94874.00
2023-03-06T02:06:58.970Z,94874.00
2023-03-06T02:07:58.960Z,94874.00
2023-03-06T02:08:58.968Z,94873.00
2023-03-06T02:09:58.988Z,94874.00
2023-03-06T02:10:58.982Z,94873.00
2023-03-06T02:11:59.014Z,94871.00
2023-03-06T02:12:58.028Z,94871.00
2023-03-06T02:13:58.045Z,94871.00
2023-03-06T02:14:59.179Z,94869.00
2023-03-06T02:15:59.119Z,94871.00
2023-03-06T02:16:58.155Z,94867.00
2023-03-06T02:17:58.139Z,94867.00
2023-03-06T02:18:59.153Z,94865.00
2023-03-06T02:19:59.209Z,94865.00
2023-03-06T02:20:58.206Z,94865.00
2023-03-06T02:21:59.208Z,94863.00
2023-03-06T02:22:59.242Z,94867.00
2023-03-06T02:23:59.266Z,94867.00
2023-03-06T02:24:59.300Z,94867.00
2023-03-06T02:25:59.338Z,94867.00
2023-03-06T02:26:58.370Z,94863.00
2023-03-06T02:27:59.404Z,94859.00
2023-03-06T02:28:59.419Z,94857.00
2023-03-06T02:29:59.448Z,94855.00
2023-03-06T02:30:58.527Z,94853.00
2023-03-06T02:31:59.675Z,94851.00
2023-03-06T02:32:59.552Z,94851.00
2023-03-06T02:33:58.594Z,94849.00
2023-03-06T02:34:59.629Z,94847.00
2023-03-06T02:35:59.692Z,94849.00
2023-03-06T02:36:59.694Z,94847.00
2023-03-06T02:37:59.700Z,94845.00
2023-03-06T02:38:59.767Z,94841.00
2023-03-06T02:39:59.764Z,94841.00
2023-03-06T02:40:59.818Z,94837.00
2023-03-06T02:41:59.815Z,94835.00
2023-03-06T02:42:59.837Z,94835.00
2023-03-06T02:43:59.866Z,94833.00
2023-03-06T02:44:59.881Z,94829.00
2023-03-06T02:45:59.912Z,94831.00
2023-03-06T02:46:59.912Z,94831.00
2023-03-06T02:47:59.966Z,94827.00
2023-03-06T02:48:59.968Z,94829.00
2023-03-06T02:49:59.976Z,94825.00
2023-03-06T02:50:58.977Z,94825.00
2023-03-06T02:51:59.986Z,94823.00
2023-03-06T02:52:59.997Z,94823.00
2023-03-06T02:53:58.968Z,94821.00
2023-03-06T02:54:58.977Z,94821.00
2023-03-06T02:55:59.981Z,94821.00
2023-03-06T02:56:59.978Z,94819.00
2023-03-06T02:57:59.976Z,94819.00
2023-03-06T02:58:59.986Z,94818.00
2023-03-06T02:59:58.997Z,94819.00
2023-03-06T03:00:59.984Z,94816.00
2023-03-06T03:01:59.007Z,94816.00
2023-03-06T03:02:59.032Z,94812.00
2023-03-06T03:04:00.099Z,94816.00
2023-03-06T03:04:59.062Z,94814.00
2023-03-06T03:06:00.106Z,94812.00
2023-03-06T03:06:59.103Z,94814.00
2023-03-06T03:07:59.127Z,94810.00
2023-03-06T03:08:59.119Z,94808.00
2023-03-06T03:09:59.136Z,94806.00
2023-03-06T03:11:00.145Z,94806.00
2023-03-06T03:11:59.160Z,94808.00
2023-03-06T03:12:59.209Z,94804.00
2023-03-06T03:14:00.229Z,94804.00
2023-03-06T03:14:59.217Z,94804.00
2023-03-06T03:16:00.330Z,94802.00
2023-03-06T03:17:00.253Z,94800.00
2023-03-06T03:18:00.288Z,94800.00
2023-03-06T03:19:00.329Z,94798.00
2023-03-06T03:20:00.418Z,94800.00
2023-03-06T03:20:59.389Z,94796.00
2023-03-06T03:22:00.409Z,94794.00
2023-03-06T03:22:59.427Z,94794.00
2023-03-06T03:24:00.452Z,94794.00
2023-03-06T03:25:00.507Z,94792.00
2023-03-06T03:26:00.559Z,94792.00
2023-03-06T03:27:00.560Z,94790.00
2023-03-06T03:28:00.597Z,94788.00
2023-03-06T03:28:59.627Z,94788.00
2023-03-06T03:30:00.685Z,94788.00
2023-03-06T03:31:00.760Z,94786.00
2023-03-06T03:32:00.773Z,94784.00
2023-03-06T03:33:00.747Z,94784.00
2023-03-06T03:34:00.786Z,94780.00
2023-03-06T03:35:00.876Z,94778.00
2023-03-06T03:36:00.886Z,94778.00
2023-03-06T03:37:00.925Z,94778.00
2023-03-06T03:38:01.124Z,94778.00
2023-03-06T03:39:00.020Z,94778.00
2023-03-06T03:40:00.081Z,94776.00
2023-03-06T03:41:01.131Z,94776.00
2023-03-06T03:42:01.190Z,94776.00
2023-03-06T03:43:01.253Z,94774.00
2023-03-06T03:44:01.340Z,94772.00
2023-03-06T03:45:00.319Z,94771.00
2023-03-06T03:46:01.345Z,94771.00
2023-03-06T03:47:01.360Z,94767.00
2023-03-06T03:48:01.385Z,94769.00
2023-03-06T03:49:01.458Z,94761.00
2023-03-06T03:50:00.486Z,94761.00
2023-03-06T03:51:01.498Z,94761.00
2023-03-06T03:52:01.566Z,94759.00
2023-03-06T03:53:01.560Z,94757.00
2023-03-06T03:54:01.579Z,94757.00
2023-03-06T03:55:00.590Z,94757.00
2023-03-06T03:56:00.625Z,94755.00
2023-03-06T03:57:00.675Z,94755.00
2023-03-06T03:58:01.721Z,94755.00
2023-03-06T03:59:01.775Z,94753.00
2023-03-06T04:00:01.846Z,94755.00
2023-03-06T04:01:01.892Z,94749.00
2023-03-06T04:02:02.033Z,94751.00
2023-03-06T04:03:00.971Z,94747.00
2023-03-06T04:04:02.028Z,94751.00
2023-03-06T04:05:01.155Z,94747.00
2023-03-06T04:06:01.136Z,94745.00
2023-03-06T04:07:01.165Z,94745.00
2023-03-06T04:08:02.196Z,94743.00
2023-03-06T04:09:02.217Z,94741.00
2023-03-06T04:10:02.221Z,94741.00
2023-03-06T04:11:02.539Z,94739.00
2023-03-06T04:12:01.306Z,94737.00
2023-03-06T04:13:02.366Z,94737.00
2023-03-06T04:14:02.407Z,94737.00
2023-03-06T04:15:01.434Z,94737.00
2023-03-06T04:16:01.535Z,94735.00
2023-03-06T04:17:01.547Z,94735.00
2023-03-06T04:18:02.612Z,94733.00
2023-03-06T04:19:02.665Z,94731.00
2023-03-06T04:20:02.729Z,94731.00
2023-03-06T04:21:02.789Z,94733.00
2023-03-06T04:22:02.846Z,94729.00
2023-03-06T04:23:02.916Z,94731.00
2023-03-06T04:24:03.000Z,94731.00
2023-03-06T04:25:03.017Z,94731.00
2023-03-06T04:26:02.071Z,94731.00
2023-03-06T04:27:02.098Z,94739.00
2023-03-06T04:28:03.167Z,94731.00
2023-03-06T04:29:03.214Z,94735.00
2023-03-06T04:30:03.274Z,94735.00
2023-03-06T04:31:03.407Z,94733.00
2023-03-06T04:32:03.457Z,94733.00
2023-03-06T04:33:02.424Z,94733.00
2023-03-06T04:34:02.503Z,94733.00
2023-03-06T04:35:03.574Z,94729.00
2023-03-06T04:36:02.604Z,94731.00
2023-03-06T04:37:03.662Z,94729.00
2023-03-06T04:38:03.670Z,94727.00
2023-03-06T04:39:03.786Z,94725.00
2023-03-06T04:40:03.814Z,94727.00
2023-03-06T04:41:03.856Z,94727.00
2023-03-06T04:42:03.971Z,94727.00
2023-03-06T04:43:03.996Z,94725.00
2023-03-06T04:44:03.069Z,94725.00
2023-03-06T04:45:04.102Z,94727.00
2023-03-06T04:46:04.246Z,94725.00
2023-03-06T04:47:04.199Z,94729.00
2023-03-06T04:48:04.270Z,94727.00
2023-03-06T04:49:04.322Z,94725.00
2023-03-06T04:50:04.374Z,94725.00
2023-03-06T04:51:04.460Z,94725.00
2023-03-06T04:52:04.489Z,94725.00
2023-03-06T04:53:04.556Z,94725.00
2023-03-06T04:54:04.637Z,94725.00
2023-03-06T04:55:03.646Z,94724.00
2023-03-06T04:56:04.730Z,94722.00
2023-03-06T04:57:03.764Z,94722.00
2023-03-06T04:58:04.808Z,94724.00
2023-03-06T04:59:04.901Z,94724.00
2023-03-06T05:00:03.904Z,94722.00
2023-03-06T05:01:05.020Z,94722.00
2023-03-06T05:02:05.092Z,94724.00
2023-03-06T05:03:04.093Z,94724.00
2023-03-06T05:04:05.148Z,94724.00
2023-03-06T05:05:05.211Z,94724.00
2023-03-06T05:06:05.319Z,94720.00
2023-03-06T05:07:05.352Z,94724.00
2023-03-06T05:08:04.391Z,94722.00
2023-03-06T05:09:05.462Z,94720.00
2023-03-06T05:10:05.525Z,94722.00
2023-03-06T05:11:05.599Z,94724.00
2023-03-06T05:12:05.669Z,94722.00
2023-03-06T05:13:04.698Z,94724.00
2023-03-06T05:14:05.758Z,94724.00
2023-03-06T05:15:05.818Z,94722.00
2023-03-06T05:16:04.944Z,94722.00
2023-03-06T05:17:05.956Z,94722.00
2023-03-06T05:18:05.998Z,94725.00
2023-03-06T05:19:06.201Z,94720.00
2023-03-06T05:20:06.169Z,94724.00
2023-03-06T05:21:06.197Z,94720.00
2023-03-06T05:22:06.257Z,94724.00
2023-03-06T05:23:06.315Z,94724.00
2023-03-06T05:24:06.372Z,94725.00
2023-03-06T05:25:06.449Z,94727.00
2023-03-06T05:26:06.490Z,94722.00
2023-03-06T05:27:06.549Z,94722.00
2023-03-06T05:28:06.635Z,94724.00
2023-03-06T05:29:05.657Z,94724.00
2023-03-06T05:30:06.709Z,94724.00
2023-03-06T05:31:06.780Z,94724.00
2023-03-06T05:32:07.061Z,94725.00
2023-03-06T05:33:06.906Z,94725.00
2023-03-06T05:34:06.966Z,94725.00
2023-03-06T05:35:07.027Z,94725.00
2023-03-06T05:36:07.092Z,94725.00
2023-03-06T05:37:07.163Z,94724.00
2023-03-06T05:38:06.218Z,94725.00
2023-03-06T05:39:07.271Z,94724.00
2023-03-06T05:40:07.342Z,94724.00
2023-03-06T05:41:07.410Z,94724.00
2023-03-06T05:42:07.457Z,94724.00
2023-03-06T05:43:07.527Z,94722.00
2023-03-06T05:44:07.614Z,94724.00
2023-03-06T05:45:06.636Z,94724.00
2023-03-06T05:46:06.794Z,94722.00
2023-03-06T05:47:07.775Z,94725.00
2023-03-06T05:48:07.835Z,94727.00
2023-03-06T05:49:07.894Z,94727.00
2023-03-06T05:50:07.996Z,94729.00
2023-03-06T05:51:08.045Z,94731.00
2023-03-06T05:52:08.123Z,94733.00
2023-03-06T05:53:07.141Z,94735.00
2023-03-06T05:54:08.216Z,94735.00
2023-03-06T05:55:08.276Z,94735.00
2023-03-06T05:56:08.324Z,94737.00
2023-03-06T05:57:08.433Z,94733.00
2023-03-06T05:58:08.449Z,94737.00
2023-03-06T05:59:08.506Z,94735.00
2023-03-06T06:00:08.594Z,94739.00
2023-03-06T06:01:08.633Z,94739.00
2023-03-06T06:02:08.730Z,94739.00
2023-03-06T06:03:08.796Z,94739.00
2023-03-06T06:04:08.847Z,94741.00
2023-03-06T06:05:10.247Z,94739.00
2023-03-06T06:06:08.856Z,94737.00
2023-03-06T06:07:08.860Z,94741.00
2023-03-06T06:08:08.832Z,94739.00
2023-03-06T06:09:08.911Z,94737.00
2023-03-06T06:10:08.906Z,94741.00
2023-03-06T06:11:08.806Z,94743.00
2023-03-06T06:12:08.839Z,94743.00
2023-03-06T06:13:08.811Z,94745.00
2023-03-06T06:14:08.780Z,94745.00
2023-03-06T06:15:08.866Z,94745.00
2023-03-06T06:16:08.892Z,94745.00
2023-03-06T06:17:08.805Z,94749.00
2023-03-06T06:18:08.822Z,94747.00
2023-03-06T06:19:08.799Z,94751.00
2023-03-06T06:20:08.801Z,94747.00
2023-03-06T06:21:08.743Z,94749.00
2023-03-06T06:22:08.820Z,94745.00
2023-03-06T06:23:08.736Z,94747.00
2023-03-06T06:24:08.737Z,94745.00
2023-03-06T06:25:08.711Z,94743.00
2023-03-06T06:26:08.714Z,94743.00
2023-03-06T06:27:08.790Z,94741.00
2023-03-06T06:28:08.752Z,94745.00
2023-03-06T06:29:08.680Z,94743.00
2023-03-06T06:30:08.703Z,94745.00
2023-03-06T06:31:08.785Z,94741.00
2023-03-06T06:32:07.861Z,94741.00
2023-03-06T06:33:08.858Z,94741.00
2023-03-06T06:34:08.923Z,94737.00
2023-03-06T06:35:09.022Z,94731.00
2023-03-06T06:36:09.005Z,94733.00
2023-03-06T06:37:08.107Z,94731.00
2023-03-06T06:38:08.070Z,94733.00
2023-03-06T06:39:09.148Z,94737.00
2023-03-06T06:40:09.144Z,94737.00
2023-03-06T06:41:36.116Z,94735.00
2023-03-06T06:42:28.564Z,94733.00
2023-03-06T06:43:09.188Z,94731.00
2023-03-06T06:44:09.158Z,94735.00
2023-03-06T06:45:08.159Z,94733.00
2023-03-06T06:46:36.522Z,94731.00
2023-03-06T06:47:25.785Z,94733.00
2023-03-06T06:48:09.154Z,94729.00
2023-03-06T06:49:09.116Z,94729.00
2023-03-06T06:50:08.093Z,94731.00
2023-03-06T06:51:09.100Z,94733.00
2023-03-06T06:52:08.079Z,94733.00
2023-03-06T06:53:09.119Z,94731.00
2023-03-06T06:54:08.144Z,94731.00
2023-03-06T06:55:09.054Z,94731.00
2023-03-06T06:56:09.058Z,94735.00
2023-03-06T06:57:08.230Z,94737.00
2023-03-06T06:58:09.348Z,94737.00
2023-03-06T06:59:16.609Z,94739.00
2023-03-06T07:00:09.055Z,94739.00
2023-03-06T07:01:09.072Z,94737.00
2023-03-06T07:02:09.189Z,94737.00
2023-03-06T07:03:09.050Z,94741.00
2023-03-06T07:04:09.038Z,94739.00
2023-03-06T07:05:09.099Z,94741.00
2023-03-06T07:06:09.080Z,94741.00
2023-03-06T07:07:08.039Z,94743.00
2023-03-06T07:08:07.995Z,94743.00
2023-03-06T07:09:08.958Z,94743.00
2023-03-06T07:10:09.034Z,94747.00
2023-03-06T07:11:07.944Z,94749.00
2023-03-06T07:12:09.035Z,94747.00
2023-03-06T07:13:08.955Z,94745.00
2023-03-06T07:14:08.925Z,94749.00
2023-03-06T07:15:08.941Z,94745.00
2023-03-06T07:16:08.040Z,94749.00
2023-03-06T07:17:08.995Z,94745.00
2023-03-06T07:18:08.987Z,94745.00
2023-03-06T07:19:08.937Z,94747.00
2023-03-06T07:20:08.962Z,94751.00
2023-03-06T07:21:08.900Z,94751.00
2023-03-06T07:22:08.883Z,94749.00
2023-03-06T07:23:09.141Z,94749.00
2023-03-06T07:24:08.853Z,94747.00
2023-03-06T07:25:08.863Z,94745.00
2023-03-06T07:26:08.848Z,94751.00
2023-03-06T07:27:09.885Z,94751.00
2023-03-06T07:28:09.305Z,94747.00
2023-03-06T07:29:08.846Z,94745.00
2023-03-06T07:30:08.884Z,94743.00
2023-03-06T07:31:08.975Z,94743.00
2023-03-06T07:32:08.992Z,94745.00
2023-03-06T07:33:09.020Z,94745.00
2023-03-06T07:34:09.050Z,94743.00
2023-03-06T07:35:19.800Z,94745.00
2023-03-06T07:36:10.833Z,94747.00
2023-03-06T07:37:08.078Z,94749.00
2023-03-06T07:38:09.042Z,94751.00
2023-03-06T07:39:09.076Z,94749.00
2023-03-06T07:40:09.044Z,94749.00
2023-03-06T07:41:09.032Z,94753.00
2023-03-06T07:42:09.037Z,94749.00
2023-03-06T07:43:18.600Z,94749.00
2023-03-06T07:44:09.064Z,94749.00
2023-03-06T07:45:09.012Z,94749.00
2023-03-06T07:46:09.077Z,94747.00
2023-03-06T07:47:09.091Z,94751.00
2023-03-06T07:48:08.001Z,94751.00
2023-03-06T07:49:09.009Z,94751.00
2023-03-06T07:50:09.006Z,94751.00
2023-03-06T07:51:09.046Z,94753.00
2023-03-06T07:52:09.022Z,94755.00
2023-03-06T07:53:10.821Z,94757.00
2023-03-06T07:54:08.970Z,94759.00
2023-03-06T07:55:08.940Z,94757.00
2023-03-06T07:56:09.267Z,94753.00
2023-03-06T07:59:08.929Z,94755.00
2023-03-06T08:00:08.902Z,94755.00
2023-03-06T08:01:08.896Z,94757.00
2023-03-06T08:02:08.877Z,94759.00
2023-03-06T08:03:08.958Z,94759.00
2023-03-06T08:04:08.897Z,94759.00
2023-03-06T08:05:08.899Z,94755.00
2023-03-06T08:06:08.879Z,94755.00
2023-03-06T08:07:08.873Z,94757.00
2023-03-06T08:08:08.866Z,94759.00
2023-03-06T08:09:08.848Z,94759.00
2023-03-06T08:11:08.850Z,94759.00
2023-03-06T08:12:08.829Z,94757.00
2023-03-06T08:13:08.825Z,94757.00
2023-03-06T08:14:08.820Z,94759.00
2023-03-06T08:15:08.861Z,94759.00
2023-03-06T08:16:08.842Z,94759.00
2023-03-06T08:17:07.782Z,94757.00
2023-03-06T08:18:08.832Z,94753.00
2023-03-06T08:19:09.264Z,94757.00
2023-03-06T08:21:08.852Z,94755.00
2023-03-06T08:23:08.782Z,94751.00
2023-03-06T08:24:08.757Z,94747.00
2023-03-06T08:25:08.753Z,94753.00
2023-03-06T08:26:08.731Z,94755.00
2023-03-06T08:27:07.711Z,94751.00
2023-03-06T08:28:08.795Z,94755.00
2023-03-06T08:30:08.813Z,94757.00
2023-03-06T08:31:08.730Z,94759.00
2023-03-06T08:32:08.763Z,94755.00
2023-03-06T08:33:08.699Z,94753.00
2023-03-06T08:34:07.662Z,94755.00
2023-03-06T08:35:07.743Z,94755.00
2023-03-06T08:36:08.674Z,94759.00
2023-03-06T08:37:08.694Z,94757.00
2023-03-06T08:38:08.648Z,94753.00
2023-03-06T08:39:08.629Z,94753.00
2023-03-06T08:40:07.649Z,94751.00
2023-03-06T08:41:08.630Z,94755.00
2023-03-06T08:42:08.613Z,94753.00
2023-03-06T08:43:08.623Z,94755.00
2023-03-06T08:44:07.661Z,94755.00
2023-03-06T08:45:08.573Z,94755.00
2023-03-06T08:46:08.568Z,94757.00
2023-03-06T08:47:07.562Z,94755.00
2023-03-06T08:48:08.585Z,94759.00
2023-03-06T08:49:07.651Z,94759.00
2023-03-06T08:50:07.606Z,94755.00
2023-03-06T08:51:07.558Z,94753.00
2023-03-06T08:52:08.536Z,94755.00
2023-03-06T08:53:08.539Z,94757.00
2023-03-06T08:54:07.535Z,94757.00
2023-03-06T08:55:08.533Z,94757.00
2023-03-06T08:56:08.560Z,94761.00
2023-03-06T08:57:07.509Z,94759.00
2023-03-06T08:58:08.536Z,94755.00
2023-03-06T08:59:07.500Z,94753.00
2023-03-06T09:00:07.496Z,94753.00
2023-03-06T09:01:08.501Z,94755.00
2023-03-06T09:02:08.654Z,94755.00
2023-03-06T09:03:07.509Z,94757.00
2023-03-06T09:04:07.570Z,94757.00
2023-03-06T09:05:08.627Z,94751.00
2023-03-06T09:06:07.674Z,94753.00
2023-03-06T09:07:08.761Z,94757.00
2023-03-06T09:08:08.794Z,94757.00
2023-03-06T09:09:07.906Z,94757.00
2023-03-06T09:10:08.920Z,94753.00
2023-03-06T09:11:08.971Z,94751.00
2023-03-06T09:12:09.054Z,94751.00
2023-03-06T09:13:09.089Z,94747.00
2023-03-06T09:14:09.158Z,94751.00
2023-03-06T09:15:09.230Z,94749.00
2023-03-06T09:16:09.492Z,94747.00
2023-03-06T09:17:08.320Z,94747.00
2023-03-06T09:18:09.470Z,94745.00
2023-03-06T09:19:09.438Z,94747.00
2023-03-06T09:20:10.581Z,94745.00
2023-03-06T09:21:09.584Z,94749.00
2023-03-06T09:22:08.591Z,94751.00
2023-03-06T09:23:09.698Z,94753.00
2023-03-06T09:24:09.718Z,94753.00
2023-03-06T09:25:08.765Z,94751.00
2023-03-06T09:26:09.842Z,94755.00
2023-03-06T09:27:09.892Z,94757.00
2023-03-06T09:28:11.866Z,94759.00
2023-03-06T09:29:09.989Z,94759.00
2023-03-06T09:30:09.929Z,94753.00
2023-03-06T09:31:09.948Z,94753.00
2023-03-06T09:32:12.068Z,94751.00
2023-03-06T09:33:09.915Z,94745.00
2023-03-06T09:34:09.912Z,94747.00
2023-03-06T09:35:08.895Z,94751.00
2023-03-06T09:36:09.899Z,94755.00
2023-03-06T09:37:08.895Z,94753.00
2023-03-06T09:38:09.893Z,94759.00
2023-03-06T09:39:09.875Z,94753.00
2023-03-06T09:40:09.857Z,94753.00
2023-03-06T09:41:09.869Z,94755.00
2023-03-06T09:42:09.860Z,94753.00
2023-03-06T09:43:09.844Z,94749.00
2023-03-06T09:44:09.235Z,94753.00
2023-03-06T09:45:08.838Z,94751.00
2023-03-06T09:46:09.836Z,94751.00
2023-03-06T09:47:09.802Z,94751.00
2023-03-06T09:48:09.800Z,94751.00
2023-03-06T09:49:09.795Z,94753.00
2023-03-06T09:50:09.877Z,94753.00
2023-03-06T09:51:09.783Z,94753.00
2023-03-06T09:52:09.785Z,94755.00
2023-03-06T09:53:09.768Z,94757.00
2023-03-06T09:54:09.762Z,94755.00
2023-03-06T09:55:09.743Z,94755.00
2023-03-06T09:56:08.745Z,94753.00
2023-03-06T09:57:09.756Z,94749.00
2023-03-06T09:58:09.722Z,94751.00
2023-03-06T09:59:10.174Z,94751.00
2023-03-06T10:00:09.735Z,94753.00
2023-03-06T10:01:09.719Z,94749.00
2023-03-06T10:02:08.808Z,94745.00
2023-03-06T10:03:08.862Z,94745.00
2023-03-06T10:04:09.682Z,94743.00
2023-03-06T10:05:08.716Z,94743.00
2023-03-06T10:06:08.685Z,94741.00
2023-03-06T10:07:08.720Z,94739.00
2023-03-06T10:08:09.656Z,94741.00
2023-03-06T10:09:09.658Z,94739.00
2023-03-06T10:10:08.649Z,94739.00
2023-03-06T10:11:09.641Z,94741.00
2023-03-06T10:12:09.646Z,94737.00
2023-03-06T10:13:09.635Z,94735.00
2023-03-06T10:14:08.676Z,94733.00
2023-03-06T10:15:08.751Z,94733.00
2023-03-06T10:16:09.853Z,94737.00
2023-03-06T10:17:09.808Z,94735.00
2023-03-06T10:18:09.857Z,94737.00
2023-03-06T10:19:09.919Z,94735.00
2023-03-06T10:20:09.993Z,94735.00
2023-03-06T10:21:19.090Z,94735.00
2023-03-06T10:22:10.022Z,94735.00
2023-03-06T10:23:11.171Z,94737.00
2023-03-06T10:24:10.033Z,94735.00
2023-03-06T10:25:09.001Z,94733.00
2023-03-06T10:26:10.111Z,94731.00
2023-03-06T10:27:09.034Z,94731.00
2023-03-06T10:28:09.951Z,94729.00
2023-03-06T10:29:09.974Z,94731.00
2023-03-06T10:30:08.938Z,94729.00
2023-03-06T10:31:10.602Z,94729.00
2023-03-06T10:32:09.013Z,94729.00
2023-03-06T10:33:09.937Z,94727.00
2023-03-06T10:34:09.924Z,94729.00
2023-03-06T10:35:08.929Z,94729.00
2023-03-06T10:36:09.906Z,94727.00
2023-03-06T10:37:09.906Z,94725.00
2023-03-06T10:38:09.914Z,94725.00
2023-03-06T10:39:09.943Z,94724.00
2023-03-06T10:40:09.898Z,94720.00
2023-03-06T10:41:08.870Z,94714.00
2023-03-06T10:42:09.876Z,94712.00
2023-03-06T10:43:11.906Z,94708.00
2023-03-06T10:44:09.854Z,94706.00
2023-03-06T10:45:09.867Z,94704.00
2023-03-06T10:46:08.882Z,94704.00
2023-03-06T10:47:09.855Z,94708.00
2023-03-06T10:48:09.851Z,94710.00
2023-03-06T10:49:09.184Z,94712.00
2023-03-06T10:50:09.810Z,94712.00
2023-03-06T10:51:18.088Z,94708.00
2023-03-06T10:52:09.816Z,94706.00
2023-03-06T10:53:09.798Z,94704.00
2023-03-06T10:54:10.192Z,94706.00
2023-03-06T10:57:09.763Z,94702.00
2023-03-06T10:58:09.757Z,94700.00
2023-03-06T10:59:09.741Z,94704.00
2023-03-06T11:00:09.755Z,94702.00
2023-03-06T11:01:08.744Z,94702.00
2023-03-06T11:02:09.713Z,94700.00
2023-03-06T11:03:09.715Z,94696.00
2023-03-06T11:04:09.815Z,94694.00
2023-03-06T11:05:09.693Z,94692.00
2023-03-06T11:06:12.559Z,94694.00
2023-03-06T11:07:09.726Z,94692.00
2023-03-06T11:08:09.696Z,94686.00
2023-03-06T11:09:09.717Z,94684.00
2023-03-06T11:10:09.693Z,94682.00
2023-03-06T11:11:09.677Z,94677.00
2023-03-06T11:12:09.666Z,94675.00
2023-03-06T11:13:09.638Z,94675.00
2023-03-06T11:14:08.651Z,94673.00
2023-03-06T11:15:08.630Z,94675.00
2023-03-06T11:17:09.632Z,94678.00
2023-03-06T11:18:09.622Z,94678.00
2023-03-06T11:19:09.630Z,94677.00
2023-03-06T11:20:08.640Z,94677.00
2023-03-06T11:21:08.600Z,94677.00
2023-03-06T11:22:09.606Z,94673.00
2023-03-06T11:23:08.586Z,94675.00
2023-03-06T11:24:09.614Z,94673.00
2023-03-06T11:26:09.572Z,94671.00
2023-03-06T11:28:09.554Z,94667.00
2023-03-06T11:29:08.636Z,94669.00
2023-03-06T11:30:09.536Z,94671.00
2023-03-06T11:31:09.579Z,94673.00
2023-03-06T11:32:09.576Z,94669.00
2023-03-06T11:33:09.524Z,94673.00
2023-03-06T11:34:08.518Z,94669.00
2023-03-06T11:35:09.508Z,94667.00
2023-03-06T11:37:09.477Z,94667.00
2023-03-06T11:38:09.482Z,94665.00
2023-03-06T11:39:09.516Z,94667.00
2023-03-06T11:40:09.475Z,94665.00
2023-03-06T11:41:09.462Z,94667.00
2023-03-06T11:42:08.453Z,94665.00
2023-03-06T11:43:09.440Z,94665.00
2023-03-06T11:44:09.432Z,94663.00
2023-03-06T11:45:09.455Z,94663.00
2023-03-06T11:47:09.451Z,94661.00
2023-03-06T11:48:09.404Z,94659.00
2023-03-06T11:49:09.404Z,94657.00
2023-03-06T11:50:09.393Z,94653.00
2023-03-06T11:51:09.377Z,94651.00
2023-03-06T11:52:09.436Z,94647.00
2023-03-06T11:53:08.373Z,94643.00
2023-03-06T11:54:09.383Z,94641.00
2023-03-06T11:55:09.360Z,94641.00
2023-03-06T11:56:09.357Z,94639.00
2023-03-06T11:57:09.342Z,94639.00
2023-03-06T11:58:08.365Z,94632.00